sensor_id;sensor_type;location;lat;lon;timestamp;P1;durP1;ratioP1;P2;durP2;ratioP2
5929;SDS011;2990;48.746;9.236;2023-09-12T00:01:21;6.97;;;6.38;;
5929;SDS011;2990;48.746;9.236;2023-09-12T00:03:46;9.38;;;6.55;;
5929;SDS011;2990;48.746;9.236;2023-09-12T00:06:12;6.28;;;5.72;;
5929;SDS011;2990;48.746;9.236;2023-09-12T00:08:37;7.60;;;6.20;;
5929;SDS011;2990;48.746;9.236;2023-09-12T00:11:07;7.30;;;6.05;;
5929;SDS011;2990;48.746;9.236;2023-09-12T00:13:36;5.95;;;5.65;;
5929;SDS011;2990;48.746;9.236;2023-09-12T00:16:02;6.45;;;5.85;;
5929;SDS011;2990;48.746;9.236;2023-09-12T00:18:28;7.28;;;5.40;;
5929;SDS011;2990;48.746;9.236;2023-09-12T00:20:53;6.65;;;5.75;;
5929;SDS011;2990;48.746;9.236;2023-09-12T00:23:20;7.07;;;5.60;;
5929;SDS011;2990;48.746;9.236;2023-09-12T00:25:48;9.70;;;6.75;;
5929;SDS011;2990;48.746;9.236;2023-09-12T00:28:16;6.70;;;5.97;;
5929;SDS011;2990;48.746;9.236;2023-09-12T00:30:42;11.38;;;6.75;;
5929;SDS011;2990;48.746;9.236;2023-09-12T00:33:07;7.18;;;5.50;;
5929;SDS011;2990;48.746;9.236;2023-09-12T00:35:33;6.07;;;5.57;;
5929;SDS011;2990;48.746;9.236;2023-09-12T00:37:58;6.13;;;5.43;;
5929;SDS011;2990;48.746;9.236;2023-09-12T00:40:24;6.78;;;6.10;;
5929;SDS011;2990;48.746;9.236;2023-09-12T00:42:49;10.02;;;5.97;;
5929;SDS011;2990;48.746;9.236;2023-09-12T00:45:15;5.50;;;4.93;;
5929;SDS011;2990;48.746;9.236;2023-09-12T00:47:40;6.95;;;6.28;;
5929;SDS011;2990;48.746;9.236;2023-09-12T00:50:06;8.50;;;6.47;;
5929;SDS011;2990;48.746;9.236;2023-09-12T00:52:33;5.10;;;4.80;;
5929;SDS011;2990;48.746;9.236;2023-09-12T00:55:01;6.57;;;5.97;;
5929;SDS011;2990;48.746;9.236;2023-09-12T00:57:27;6.65;;;6.15;;
5929;SDS011;2990;48.746;9.236;2023-09-12T00:59:53;6.03;;;5.53;;
5929;SDS011;2990;48.746;9.236;2023-09-12T01:02:20;5.63;;;5.13;;
5929;SDS011;2990;48.746;9.236;2023-09-12T01:04:46;5.97;;;5.45;;
5929;SDS011;2990;48.746;9.236;2023-09-12T01:07:12;5.75;;;5.13;;
5929;SDS011;2990;48.746;9.236;2023-09-12T01:09:38;5.25;;;4.95;;
5929;SDS011;2990;48.746;9.236;2023-09-12T01:12:05;7.25;;;5.63;;
5929;SDS011;2990;48.746;9.236;2023-09-12T01:14:31;9.75;;;6.13;;
5929;SDS011;2990;48.746;9.236;2023-09-12T01:16:57;6.80;;;6.07;;
5929;SDS011;2990;48.746;9.236;2023-09-12T01:19:23;7.40;;;5.53;;
5929;SDS011;2990;48.746;9.236;2023-09-12T01:27:28;5.50;;;5.10;;
5929;SDS011;2990;48.746;9.236;2023-09-12T01:30:00;7.40;;;5.07;;
5929;SDS011;2990;48.746;9.236;2023-09-12T01:32:29;6.32;;;5.85;;
5929;SDS011;2990;48.746;9.236;2023-09-12T01:34:56;6.18;;;5.72;;
5929;SDS011;2990;48.746;9.236;2023-09-12T01:37:21;6.45;;;5.75;;
5929;SDS011;2990;48.746;9.236;2023-09-12T01:39:47;6.53;;;5.90;;
5929;SDS011;2990;48.746;9.236;2023-09-12T01:42:13;8.13;;;6.28;;
5929;SDS011;2990;48.746;9.236;2023-09-12T01:44:43;8.95;;;6.72;;
5929;SDS011;2990;48.746;9.236;2023-09-12T01:47:10;9.77;;;6.53;;
5929;SDS011;2990;48.746;9.236;2023-09-12T01:49:37;6.60;;;6.00;;
5929;SDS011;2990;48.746;9.236;2023-09-12T01:52:07;7.13;;;6.53;;
5929;SDS011;2990;48.746;9.236;2023-09-12T01:54:34;11.57;;;7.00;;
5929;SDS011;2990;48.746;9.236;2023-09-12T01:57:01;6.57;;;5.95;;
5929;SDS011;2990;48.746;9.236;2023-09-12T01:59:28;7.55;;;6.22;;
5929;SDS011;2990;48.746;9.236;2023-09-12T02:01:54;7.95;;;6.28;;
5929;SDS011;2990;48.746;9.236;2023-09-12T02:04:20;10.57;;;7.05;;
5929;SDS011;2990;48.746;9.236;2023-09-12T02:06:45;8.68;;;6.88;;
5929;SDS011;2990;48.746;9.236;2023-09-12T02:09:11;7.28;;;5.97;;
5929;SDS011;2990;48.746;9.236;2023-09-12T02:11:36;7.35;;;6.40;;
5929;SDS011;2990;48.746;9.236;2023-09-12T02:14:02;7.60;;;5.95;;
5929;SDS011;2990;48.746;9.236;2023-09-12T02:16:28;6.85;;;6.38;;
5929;SDS011;2990;48.746;9.236;2023-09-12T02:18:54;10.82;;;6.30;;
5929;SDS011;2990;48.746;9.236;2023-09-12T02:21:19;6.45;;;5.82;;
5929;SDS011;2990;48.746;9.236;2023-09-12T02:23:46;8.27;;;6.47;;
5929;SDS011;2990;48.746;9.236;2023-09-12T02:26:12;7.65;;;7.05;;
5929;SDS011;2990;48.746;9.236;2023-09-12T02:28:37;6.25;;;5.75;;
5929;SDS011;2990;48.746;9.236;2023-09-12T02:31:03;7.00;;;6.35;;
5929;SDS011;2990;48.746;9.236;2023-09-12T02:33:34;6.55;;;5.82;;
5929;SDS011;2990;48.746;9.236;2023-09-12T02:35:59;6.80;;;6.38;;
5929;SDS011;2990;48.746;9.236;2023-09-12T02:38:25;9.98;;;6.95;;
5929;SDS011;2990;48.746;9.236;2023-09-12T02:40:50;6.40;;;5.75;;
5929;SDS011;2990;48.746;9.236;2023-09-12T02:43:16;7.05;;;6.38;;
5929;SDS011;2990;48.746;9.236;2023-09-12T02:45:42;8.63;;;6.38;;
5929;SDS011;2990;48.746;9.236;2023-09-12T02:48:07;7.45;;;6.18;;
5929;SDS011;2990;48.746;9.236;2023-09-12T02:50:33;6.53;;;5.93;;
5929;SDS011;2990;48.746;9.236;2023-09-12T02:52:58;7.50;;;6.28;;
5929;SDS011;2990;48.746;9.236;2023-09-12T02:55:24;7.40;;;6.70;;
5929;SDS011;2990;48.746;9.236;2023-09-12T02:57:49;7.50;;;6.22;;
5929;SDS011;2990;48.746;9.236;2023-09-12T03:00:15;6.90;;;5.93;;
5929;SDS011;2990;48.746;9.236;2023-09-12T03:02:40;7.63;;;6.18;;
5929;SDS011;2990;48.746;9.236;2023-09-12T03:05:06;7.63;;;6.07;;
5929;SDS011;2990;48.746;9.236;2023-09-12T03:07:32;6.07;;;5.55;;
5929;SDS011;2990;48.746;9.236;2023-09-12T03:09:58;6.07;;;5.57;;
5929;SDS011;2990;48.746;9.236;2023-09-12T03:12:23;6.22;;;5.75;;
5929;SDS011;2990;48.746;9.236;2023-09-12T03:14:49;7.07;;;5.93;;
5929;SDS011;2990;48.746;9.236;2023-09-12T03:17:14;7.03;;;6.10;;
5929;SDS011;2990;48.746;9.236;2023-09-12T03:19:40;6.57;;;5.95;;
5929;SDS011;2990;48.746;9.236;2023-09-12T03:22:05;8.18;;;6.43;;
5929;SDS011;2990;48.746;9.236;2023-09-12T03:24:31;7.07;;;6.38;;
5929;SDS011;2990;48.746;9.236;2023-09-12T03:26:56;9.20;;;6.57;;
5929;SDS011;2990;48.746;9.236;2023-09-12T03:29:22;6.80;;;6.15;;
5929;SDS011;2990;48.746;9.236;2023-09-12T03:31:48;7.45;;;6.35;;
5929;SDS011;2990;48.746;9.236;2023-09-12T03:34:13;7.70;;;6.85;;
5929;SDS011;2990;48.746;9.236;2023-09-12T03:36:39;8.57;;;6.43;;
5929;SDS011;2990;48.746;9.236;2023-09-12T03:39:04;5.97;;;5.57;;
5929;SDS011;2990;48.746;9.236;2023-09-12T03:41:33;7.22;;;6.53;;
5929;SDS011;2990;48.746;9.236;2023-09-12T03:44:01;6.32;;;5.90;;
5929;SDS011;2990;48.746;9.236;2023-09-12T03:46:27;7.30;;;5.63;;
5929;SDS011;2990;48.746;9.236;2023-09-12T03:48:52;7.85;;;6.47;;
5929;SDS011;2990;48.746;9.236;2023-09-12T03:51:18;6.05;;;5.45;;
5929;SDS011;2990;48.746;9.236;2023-09-12T03:53:43;6.15;;;5.63;;
5929;SDS011;2990;48.746;9.236;2023-09-12T03:56:09;6.32;;;5.75;;
5929;SDS011;2990;48.746;9.236;2023-09-12T03:58:38;7.05;;;6.30;;
5929;SDS011;2990;48.746;9.236;2023-09-12T04:01:04;6.93;;;6.05;;
5929;SDS011;2990;48.746;9.236;2023-09-12T04:03:29;9.07;;;5.85;;
5929;SDS011;2990;48.746;9.236;2023-09-12T04:05:55;10.18;;;5.95;;
5929;SDS011;2990;48.746;9.236;2023-09-12T04:08:20;6.82;;;5.60;;
5929;SDS011;2990;48.746;9.236;2023-09-12T04:10:46;6.93;;;5.07;;
5929;SDS011;2990;48.746;9.236;2023-09-12T04:13:12;7.50;;;6.80;;
5929;SDS011;2990;48.746;9.236;2023-09-12T04:15:37;5.85;;;5.43;;
5929;SDS011;2990;48.746;9.236;2023-09-12T04:18:03;6.47;;;5.85;;
5929;SDS011;2990;48.746;9.236;2023-09-12T04:20:29;6.95;;;6.25;;
5929;SDS011;2990;48.746;9.236;2023-09-12T04:22:54;7.38;;;6.55;;
5929;SDS011;2990;48.746;9.236;2023-09-12T04:25:20;7.40;;;6.53;;
5929;SDS011;2990;48.746;9.236;2023-09-12T04:27:45;7.10;;;6.18;;
5929;SDS011;2990;48.746;9.236;2023-09-12T04:30:11;6.93;;;6.20;;
5929;SDS011;2990;48.746;9.236;2023-09-12T04:32:37;7.15;;;6.13;;
5929;SDS011;2990;48.746;9.236;2023-09-12T04:35:02;7.40;;;5.82;;
5929;SDS011;2990;48.746;9.236;2023-09-12T04:37:28;6.47;;;5.75;;
5929;SDS011;2990;48.746;9.236;2023-09-12T04:39:54;7.45;;;6.00;;
5929;SDS011;2990;48.746;9.236;2023-09-12T04:42:19;12.23;;;6.22;;
5929;SDS011;2990;48.746;9.236;2023-09-12T04:44:45;6.93;;;5.95;;
5929;SDS011;2990;48.746;9.236;2023-09-12T04:47:11;10.27;;;6.57;;
5929;SDS011;2990;48.746;9.236;2023-09-12T04:49:37;6.78;;;6.13;;
5929;SDS011;2990;48.746;9.236;2023-09-12T04:52:03;6.65;;;5.93;;
5929;SDS011;2990;48.746;9.236;2023-09-12T04:54:29;7.72;;;5.88;;
5929;SDS011;2990;48.746;9.236;2023-09-12T04:56:54;7.10;;;6.40;;
5929;SDS011;2990;48.746;9.236;2023-09-12T04:59:20;6.68;;;6.18;;
5929;SDS011;2990;48.746;9.236;2023-09-12T05:01:45;7.43;;;6.20;;
5929;SDS011;2990;48.746;9.236;2023-09-12T05:04:11;10.85;;;6.25;;
5929;SDS011;2990;48.746;9.236;2023-09-12T05:06:37;9.18;;;7.10;;
5929;SDS011;2990;48.746;9.236;2023-09-12T05:09:02;6.82;;;6.20;;
5929;SDS011;2990;48.746;9.236;2023-09-12T05:11:28;7.40;;;6.68;;
5929;SDS011;2990;48.746;9.236;2023-09-12T05:13:53;7.63;;;6.90;;
5929;SDS011;2990;48.746;9.236;2023-09-12T05:16:19;7.90;;;7.00;;
5929;SDS011;2990;48.746;9.236;2023-09-12T05:18:45;7.25;;;6.43;;
5929;SDS011;2990;48.746;9.236;2023-09-12T05:21:10;7.95;;;6.07;;
5929;SDS011;2990;48.746;9.236;2023-09-12T05:23:36;7.53;;;6.82;;
5929;SDS011;2990;48.746;9.236;2023-09-12T05:26:01;8.40;;;6.18;;
5929;SDS011;2990;48.746;9.236;2023-09-12T05:28:27;7.50;;;5.70;;
5929;SDS011;2990;48.746;9.236;2023-09-12T05:30:53;6.95;;;6.28;;
5929;SDS011;2990;48.746;9.236;2023-09-12T05:33:18;6.95;;;6.07;;
5929;SDS011;2990;48.746;9.236;2023-09-12T05:35:44;6.72;;;6.13;;
5929;SDS011;2990;48.746;9.236;2023-09-12T05:38:10;8.95;;;6.15;;
5929;SDS011;2990;48.746;9.236;2023-09-12T05:40:36;10.10;;;7.25;;
5929;SDS011;2990;48.746;9.236;2023-09-12T05:43:01;6.70;;;5.97;;
5929;SDS011;2990;48.746;9.236;2023-09-12T05:45:27;8.85;;;6.00;;
5929;SDS011;2990;48.746;9.236;2023-09-12T05:47:55;6.03;;;5.45;;
5929;SDS011;2990;48.746;9.236;2023-09-12T05:50:21;6.07;;;5.60;;
5929;SDS011;2990;48.746;9.236;2023-09-12T05:52:46;6.30;;;5.75;;
5929;SDS011;2990;48.746;9.236;2023-09-12T05:55:12;6.35;;;5.78;;
5929;SDS011;2990;48.746;9.236;2023-09-12T05:57:38;5.95;;;5.45;;
5929;SDS011;2990;48.746;9.236;2023-09-12T06:00:03;6.25;;;5.68;;
5929;SDS011;2990;48.746;9.236;2023-09-12T06:02:30;6.38;;;5.22;;
5929;SDS011;2990;48.746;9.236;2023-09-12T06:04:58;6.82;;;6.15;;
5929;SDS011;2990;48.746;9.236;2023-09-12T06:07:23;5.65;;;5.25;;
5929;SDS011;2990;48.746;9.236;2023-09-12T06:09:50;6.05;;;5.50;;
5929;SDS011;2990;48.746;9.236;2023-09-12T06:12:15;7.68;;;5.72;;
5929;SDS011;2990;48.746;9.236;2023-09-12T06:14:41;6.15;;;5.70;;
5929;SDS011;2990;48.746;9.236;2023-09-12T06:17:06;6.05;;;5.60;;
5929;SDS011;2990;48.746;9.236;2023-09-12T06:19:32;9.07;;;6.43;;
5929;SDS011;2990;48.746;9.236;2023-09-12T06:21:57;6.53;;;6.03;;
5929;SDS011;2990;48.746;9.236;2023-09-12T06:24:23;6.18;;;5.80;;
5929;SDS011;2990;48.746;9.236;2023-09-12T06:26:49;9.73;;;5.55;;
5929;SDS011;2990;48.746;9.236;2023-09-12T06:29:14;6.05;;;5.45;;
5929;SDS011;2990;48.746;9.236;2023-09-12T06:31:40;6.68;;;5.78;;
5929;SDS011;2990;48.746;9.236;2023-09-12T06:34:06;4.95;;;4.55;;
5929;SDS011;2990;48.746;9.236;2023-09-12T06:36:32;5.20;;;4.80;;
5929;SDS011;2990;48.746;9.236;2023-09-12T06:38:58;6.03;;;5.53;;
5929;SDS011;2990;48.746;9.236;2023-09-12T06:41:24;6.60;;;5.50;;
5929;SDS011;2990;48.746;9.236;2023-09-12T06:43:51;5.60;;;5.30;;
5929;SDS011;2990;48.746;9.236;2023-09-12T06:46:16;5.90;;;5.40;;
5929;SDS011;2990;48.746;9.236;2023-09-12T06:48:42;6.65;;;6.00;;
5929;SDS011;2990;48.746;9.236;2023-09-12T06:51:11;8.45;;;5.15;;
5929;SDS011;2990;48.746;9.236;2023-09-12T06:53:37;6.30;;;5.20;;
5929;SDS011;2990;48.746;9.236;2023-09-12T06:56:03;6.80;;;6.03;;
5929;SDS011;2990;48.746;9.236;2023-09-12T06:58:30;6.43;;;4.82;;
5929;SDS011;2990;48.746;9.236;2023-09-12T07:00:55;7.47;;;5.15;;
5929;SDS011;2990;48.746;9.236;2023-09-12T07:03:21;6.00;;;5.50;;
5929;SDS011;2990;48.746;9.236;2023-09-12T07:05:46;5.55;;;5.18;;
5929;SDS011;2990;48.746;9.236;2023-09-12T07:08:13;5.32;;;4.93;;
5929;SDS011;2990;48.746;9.236;2023-09-12T07:10:45;8.38;;;5.95;;
5929;SDS011;2990;48.746;9.236;2023-09-12T07:13:11;6.03;;;5.45;;
5929;SDS011;2990;48.746;9.236;2023-09-12T07:15:36;5.82;;;5.38;;
5929;SDS011;2990;48.746;9.236;2023-09-12T07:18:02;7.55;;;5.15;;
5929;SDS011;2990;48.746;9.236;2023-09-12T07:20:28;6.10;;;5.60;;
5929;SDS011;2990;48.746;9.236;2023-09-12T07:22:53;6.07;;;5.50;;
5929;SDS011;2990;48.746;9.236;2023-09-12T07:25:19;5.82;;;5.32;;
5929;SDS011;2990;48.746;9.236;2023-09-12T07:27:45;5.80;;;5.40;;
5929;SDS011;2990;48.746;9.236;2023-09-12T07:30:11;5.28;;;4.80;;
5929;SDS011;2990;48.746;9.236;2023-09-12T07:32:37;6.95;;;6.43;;
5929;SDS011;2990;48.746;9.236;2023-09-12T07:35:02;5.35;;;4.93;;
5929;SDS011;2990;48.746;9.236;2023-09-12T07:37:28;5.78;;;5.32;;
5929;SDS011;2990;48.746;9.236;2023-09-12T07:39:54;5.70;;;5.30;;
5929;SDS011;2990;48.746;9.236;2023-09-12T07:42:22;6.00;;;5.43;;
5929;SDS011;2990;48.746;9.236;2023-09-12T07:44:48;5.32;;;5.03;;
5929;SDS011;2990;48.746;9.236;2023-09-12T07:47:14;5.20;;;4.80;;
5929;SDS011;2990;48.746;9.236;2023-09-12T07:49:40;4.88;;;4.57;;
5929;SDS011;2990;48.746;9.236;2023-09-12T07:52:06;5.15;;;4.95;;
5929;SDS011;2990;48.746;9.236;2023-09-12T07:54:32;5.63;;;5.13;;
5929;SDS011;2990;48.746;9.236;2023-09-12T07:56:58;4.93;;;4.63;;
5929;SDS011;2990;48.746;9.236;2023-09-12T07:59:23;5.35;;;5.05;;
5929;SDS011;2990;48.746;9.236;2023-09-12T08:01:49;5.65;;;5.35;;
5929;SDS011;2990;48.746;9.236;2023-09-12T08:04:16;8.15;;;5.40;;
5929;SDS011;2990;48.746;9.236;2023-09-12T08:06:41;7.07;;;5.57;;
5929;SDS011;2990;48.746;9.236;2023-09-12T08:09:08;6.25;;;5.10;;
5929;SDS011;2990;48.746;9.236;2023-09-12T08:11:34;6.13;;;5.63;;
5929;SDS011;2990;48.746;9.236;2023-09-12T08:14:00;5.53;;;5.22;;
5929;SDS011;2990;48.746;9.236;2023-09-12T08:16:26;6.00;;;5.60;;
5929;SDS011;2990;48.746;9.236;2023-09-12T08:18:51;5.78;;;5.47;;
5929;SDS011;2990;48.746;9.236;2023-09-12T08:21:17;5.88;;;5.47;;
5929;SDS011;2990;48.746;9.236;2023-09-12T08:23:42;5.93;;;5.53;;
5929;SDS011;2990;48.746;9.236;2023-09-12T08:26:08;7.10;;;5.97;;
5929;SDS011;2990;48.746;9.236;2023-09-12T08:28:34;7.70;;;7.10;;
5929;SDS011;2990;48.746;9.236;2023-09-12T08:30:59;6.53;;;6.03;;
5929;SDS011;2990;48.746;9.236;2023-09-12T08:33:25;6.25;;;5.82;;
5929;SDS011;2990;48.746;9.236;2023-09-12T08:35:50;6.50;;;6.03;;
5929;SDS011;2990;48.746;9.236;2023-09-12T08:38:16;6.43;;;5.82;;
5929;SDS011;2990;48.746;9.236;2023-09-12T08:40:47;5.68;;;5.38;;
5929;SDS011;2990;48.746;9.236;2023-09-12T08:43:16;5.80;;;5.22;;
5929;SDS011;2990;48.746;9.236;2023-09-12T08:45:42;5.35;;;5.00;;
5929;SDS011;2990;48.746;9.236;2023-09-12T08:48:11;6.15;;;5.55;;
5929;SDS011;2990;48.746;9.236;2023-09-12T08:50:38;6.00;;;5.70;;
5929;SDS011;2990;48.746;9.236;2023-09-12T08:53:03;7.43;;;6.15;;
5929;SDS011;2990;48.746;9.236;2023-09-12T08:55:29;6.43;;;5.93;;
5929;SDS011;2990;48.746;9.236;2023-09-12T08:57:58;6.25;;;5.72;;
5929;SDS011;2990;48.746;9.236;2023-09-12T09:00:24;5.88;;;5.35;;
5929;SDS011;2990;48.746;9.236;2023-09-12T09:02:52;8.07;;;5.82;;
5929;SDS011;2990;48.746;9.236;2023-09-12T09:05:18;6.15;;;5.20;;
5929;SDS011;2990;48.746;9.236;2023-09-12T09:07:46;5.75;;;5.25;;
5929;SDS011;2990;48.746;9.236;2023-09-12T09:10:15;5.45;;;5.15;;
5929;SDS011;2990;48.746;9.236;2023-09-12T09:12:43;5.40;;;5.00;;
5929;SDS011;2990;48.746;9.236;2023-09-12T09:15:28;5.45;;;5.15;;
5929;SDS011;2990;48.746;9.236;2023-09-12T09:17:56;6.00;;;5.60;;
5929;SDS011;2990;48.746;9.236;2023-09-12T09:20:26;5.68;;;5.22;;
5929;SDS011;2990;48.746;9.236;2023-09-12T09:23:00;5.60;;;5.30;;
5929;SDS011;2990;48.746;9.236;2023-09-12T09:25:26;6.07;;;5.55;;
5929;SDS011;2990;48.746;9.236;2023-09-12T09:27:52;6.28;;;5.80;;
5929;SDS011;2990;48.746;9.236;2023-09-12T09:30:18;5.78;;;5.43;;
5929;SDS011;2990;48.746;9.236;2023-09-12T09:33:03;7.20;;;5.47;;
5929;SDS011;2990;48.746;9.236;2023-09-12T09:35:29;9.13;;;5.03;;
5929;SDS011;2990;48.746;9.236;2023-09-12T09:37:54;8.18;;;5.40;;
5929;SDS011;2990;48.746;9.236;2023-09-12T09:40:21;5.18;;;4.88;;
5929;SDS011;2990;48.746;9.236;2023-09-12T09:42:48;5.43;;;4.95;;
5929;SDS011;2990;48.746;9.236;2023-09-12T09:45:19;4.90;;;4.70;;
5929;SDS011;2990;48.746;9.236;2023-09-12T09:47:44;5.80;;;5.35;;
5929;SDS011;2990;48.746;9.236;2023-09-12T09:50:13;5.30;;;5.00;;
5929;SDS011;2990;48.746;9.236;2023-09-12T09:52:39;5.63;;;5.32;;
5929;SDS011;2990;48.746;9.236;2023-09-12T09:55:08;6.32;;;5.93;;
5929;SDS011;2990;48.746;9.236;2023-09-12T09:57:39;5.53;;;5.03;;
5929;SDS011;2990;48.746;9.236;2023-09-12T10:00:04;5.40;;;5.10;;
5929;SDS011;2990;48.746;9.236;2023-09-12T10:02:33;5.30;;;5.00;;
5929;SDS011;2990;48.746;9.236;2023-09-12T10:05:02;5.05;;;4.80;;
5929;SDS011;2990;48.746;9.236;2023-09-12T10:07:31;7.60;;;4.53;;
5929;SDS011;2990;48.746;9.236;2023-09-12T10:09:58;5.18;;;4.82;;
5929;SDS011;2990;48.746;9.236;2023-09-12T10:12:27;4.63;;;4.22;;
5929;SDS011;2990;48.746;9.236;2023-09-12T10:14:56;5.15;;;4.93;;
5929;SDS011;2990;48.746;9.236;2023-09-12T10:17:25;6.93;;;4.90;;
5929;SDS011;2990;48.746;9.236;2023-09-12T10:20:02;5.57;;;5.03;;
5929;SDS011;2990;48.746;9.236;2023-09-12T10:22:36;5.40;;;5.10;;
5929;SDS011;2990;48.746;9.236;2023-09-12T10:25:08;5.05;;;4.90;;
5929;SDS011;2990;48.746;9.236;2023-09-12T10:27:36;5.30;;;4.85;;
5929;SDS011;2990;48.746;9.236;2023-09-12T10:30:02;4.60;;;4.30;;
5929;SDS011;2990;48.746;9.236;2023-09-12T10:32:29;5.20;;;4.97;;
5929;SDS011;2990;48.746;9.236;2023-09-12T10:34:58;5.05;;;4.75;;
5929;SDS011;2990;48.746;9.236;2023-09-12T10:37:24;5.10;;;4.90;;
5929;SDS011;2990;48.746;9.236;2023-09-12T10:39:52;4.70;;;4.53;;
5929;SDS011;2990;48.746;9.236;2023-09-12T10:42:18;9.30;;;4.63;;
5929;SDS011;2990;48.746;9.236;2023-09-12T10:44:45;8.02;;;4.97;;
5929;SDS011;2990;48.746;9.236;2023-09-12T10:47:11;5.20;;;4.78;;
5929;SDS011;2990;48.746;9.236;2023-09-12T10:49:38;5.10;;;4.80;;
5929;SDS011;2990;48.746;9.236;2023-09-12T10:52:04;5.65;;;5.10;;
5929;SDS011;2990;48.746;9.236;2023-09-12T10:54:39;5.47;;;5.07;;
5929;SDS011;2990;48.746;9.236;2023-09-12T10:57:05;4.25;;;4.00;;
5929;SDS011;2990;48.746;9.236;2023-09-12T10:59:33;4.57;;;4.28;;
5929;SDS011;2990;48.746;9.236;2023-09-12T11:02:26;5.25;;;4.50;;
5929;SDS011;2990;48.746;9.236;2023-09-12T11:04:54;5.25;;;5.05;;
5929;SDS011;2990;48.746;9.236;2023-09-12T11:12:46;4.97;;;4.55;;
5929;SDS011;2990;48.746;9.236;2023-09-12T11:15:14;4.40;;;4.28;;
5929;SDS011;2990;48.746;9.236;2023-09-12T11:17:44;4.97;;;4.60;;
5929;SDS011;2990;48.746;9.236;2023-09-12T11:20:11;4.85;;;4.57;;
5929;SDS011;2990;48.746;9.236;2023-09-12T11:22:47;4.32;;;4.22;;
5929;SDS011;2990;48.746;9.236;2023-09-12T11:25:23;4.85;;;4.55;;
5929;SDS011;2990;48.746;9.236;2023-09-12T11:30:18;4.72;;;4.57;;
5929;SDS011;2990;48.746;9.236;2023-09-12T11:32:52;4.28;;;4.13;;
5929;SDS011;2990;48.746;9.236;2023-09-12T11:35:22;4.95;;;4.65;;
5929;SDS011;2990;48.746;9.236;2023-09-12T11:37:50;3.90;;;3.70;;
5929;SDS011;2990;48.746;9.236;2023-09-12T11:40:25;5.05;;;4.75;;
5929;SDS011;2990;48.746;9.236;2023-09-12T11:43:05;4.35;;;4.20;;
5929;SDS011;2990;48.746;9.236;2023-09-12T11:45:31;7.20;;;4.75;;
5929;SDS011;2990;48.746;9.236;2023-09-12T11:47:58;4.47;;;4.28;;
5929;SDS011;2990;48.746;9.236;2023-09-12T11:50:33;4.55;;;4.28;;
5929;SDS011;2990;48.746;9.236;2023-09-12T11:53:05;4.55;;;4.45;;
5929;SDS011;2990;48.746;9.236;2023-09-12T11:55:33;4.90;;;4.57;;
5929;SDS011;2990;48.746;9.236;2023-09-12T11:58:13;4.80;;;4.50;;
5929;SDS011;2990;48.746;9.236;2023-09-12T12:00:50;4.30;;;4.10;;
5929;SDS011;2990;48.746;9.236;2023-09-12T12:03:19;4.88;;;4.47;;
5929;SDS011;2990;48.746;9.236;2023-09-12T12:05:46;3.97;;;3.88;;
5929;SDS011;2990;48.746;9.236;2023-09-12T12:08:13;4.18;;;3.83;;
5929;SDS011;2990;48.746;9.236;2023-09-12T12:10:39;4.35;;;4.25;;
5929;SDS011;2990;48.746;9.236;2023-09-12T12:13:06;4.28;;;4.05;;
5929;SDS011;2990;48.746;9.236;2023-09-12T12:15:36;4.65;;;4.18;;
5929;SDS011;2990;48.746;9.236;2023-09-12T12:18:01;3.95;;;3.85;;
5929;SDS011;2990;48.746;9.236;2023-09-12T12:20:27;4.10;;;3.90;;
5929;SDS011;2990;48.746;9.236;2023-09-12T12:22:55;4.50;;;4.25;;
5929;SDS011;2990;48.746;9.236;2023-09-12T12:25:21;4.15;;;4.05;;
5929;SDS011;2990;48.746;9.236;2023-09-12T12:27:47;3.88;;;3.78;;
5929;SDS011;2990;48.746;9.236;2023-09-12T12:30:13;4.63;;;4.32;;
5929;SDS011;2990;48.746;9.236;2023-09-12T12:32:39;4.20;;;3.90;;
5929;SDS011;2990;48.746;9.236;2023-09-12T12:35:06;5.40;;;4.88;;
5929;SDS011;2990;48.746;9.236;2023-09-12T12:37:32;3.58;;;3.58;;
5929;SDS011;2990;48.746;9.236;2023-09-12T12:39:59;6.53;;;3.83;;
5929;SDS011;2990;48.746;9.236;2023-09-12T12:42:32;3.70;;;3.40;;
5929;SDS011;2990;48.746;9.236;2023-09-12T12:45:00;3.40;;;3.40;;
5929;SDS011;2990;48.746;9.236;2023-09-12T12:47:25;3.80;;;3.70;;
5929;SDS011;2990;48.746;9.236;2023-09-12T12:49:52;3.95;;;3.83;;
5929;SDS011;2990;48.746;9.236;2023-09-12T12:52:24;5.88;;;4.43;;
5929;SDS011;2990;48.746;9.236;2023-09-12T12:54:50;4.57;;;4.25;;
5929;SDS011;2990;48.746;9.236;2023-09-12T12:57:20;4.00;;;3.90;;
5929;SDS011;2990;48.746;9.236;2023-09-12T12:59:47;4.38;;;4.13;;
5929;SDS011;2990;48.746;9.236;2023-09-12T13:02:13;4.53;;;4.43;;
5929;SDS011;2990;48.746;9.236;2023-09-12T13:04:39;4.53;;;4.07;;
5929;SDS011;2990;48.746;9.236;2023-09-12T13:07:05;3.95;;;3.70;;
5929;SDS011;2990;48.746;9.236;2023-09-12T13:09:32;3.63;;;3.30;;
5929;SDS011;2990;48.746;9.236;2023-09-12T13:11:58;3.10;;;3.00;;
5929;SDS011;2990;48.746;9.236;2023-09-12T13:14:24;3.72;;;3.53;;
5929;SDS011;2990;48.746;9.236;2023-09-12T13:16:55;3.40;;;3.20;;
5929;SDS011;2990;48.746;9.236;2023-09-12T13:19:24;3.22;;;3.20;;
5929;SDS011;2990;48.746;9.236;2023-09-12T13:21:50;3.45;;;3.25;;
5929;SDS011;2990;48.746;9.236;2023-09-12T13:24:16;3.70;;;3.50;;
5929;SDS011;2990;48.746;9.236;2023-09-12T13:26:41;3.47;;;3.38;;
5929;SDS011;2990;48.746;9.236;2023-09-12T13:29:07;4.18;;;3.97;;
5929;SDS011;2990;48.746;9.236;2023-09-12T13:31:33;4.25;;;3.53;;
5929;SDS011;2990;48.746;9.236;2023-09-12T13:33:58;4.15;;;3.85;;
5929;SDS011;2990;48.746;9.236;2023-09-12T13:36:24;3.85;;;3.65;;
5929;SDS011;2990;48.746;9.236;2023-09-12T13:38:49;3.65;;;3.55;;
5929;SDS011;2990;48.746;9.236;2023-09-12T13:41:16;3.25;;;2.90;;
5929;SDS011;2990;48.746;9.236;2023-09-12T13:43:42;3.30;;;3.10;;
5929;SDS011;2990;48.746;9.236;2023-09-12T13:46:10;3.00;;;2.90;;
5929;SDS011;2990;48.746;9.236;2023-09-12T13:48:36;3.47;;;3.38;;
5929;SDS011;2990;48.746;9.236;2023-09-12T13:51:01;3.72;;;3.42;;
5929;SDS011;2990;48.746;9.236;2023-09-12T13:53:27;3.83;;;3.50;;
5929;SDS011;2990;48.746;9.236;2023-09-12T13:55:53;3.60;;;3.45;;
5929;SDS011;2990;48.746;9.236;2023-09-12T13:58:18;3.58;;;3.40;;
5929;SDS011;2990;48.746;9.236;2023-09-12T14:00:44;5.38;;;3.25;;
5929;SDS011;2990;48.746;9.236;2023-09-12T14:03:09;3.65;;;3.40;;
5929;SDS011;2990;48.746;9.236;2023-09-12T14:05:35;4.38;;;4.13;;
5929;SDS011;2990;48.746;9.236;2023-09-12T14:08:00;3.63;;;3.33;;
5929;SDS011;2990;48.746;9.236;2023-09-12T14:10:26;3.83;;;3.63;;
5929;SDS011;2990;48.746;9.236;2023-09-12T14:12:51;3.80;;;3.47;;
5929;SDS011;2990;48.746;9.236;2023-09-12T14:15:17;3.28;;;3.17;;
5929;SDS011;2990;48.746;9.236;2023-09-12T14:17:42;4.00;;;3.90;;
5929;SDS011;2990;48.746;9.236;2023-09-12T14:20:08;4.75;;;3.70;;
5929;SDS011;2990;48.746;9.236;2023-09-12T14:22:34;4.00;;;3.42;;
5929;SDS011;2990;48.746;9.236;2023-09-12T14:25:00;3.80;;;3.70;;
5929;SDS011;2990;48.746;9.236;2023-09-12T14:27:25;3.45;;;3.35;;
5929;SDS011;2990;48.746;9.236;2023-09-12T14:29:51;4.32;;;3.90;;
5929;SDS011;2990;48.746;9.236;2023-09-12T14:32:16;3.85;;;3.75;;
5929;SDS011;2990;48.746;9.236;2023-09-12T14:34:42;3.58;;;3.47;;
5929;SDS011;2990;48.746;9.236;2023-09-12T14:37:08;3.70;;;3.60;;
5929;SDS011;2990;48.746;9.236;2023-09-12T14:39:33;4.45;;;4.05;;
5929;SDS011;2990;48.746;9.236;2023-09-12T14:41:59;3.90;;;3.55;;
5929;SDS011;2990;48.746;9.236;2023-09-12T14:44:28;5.80;;;3.75;;
5929;SDS011;2990;48.746;9.236;2023-09-12T14:46:57;3.50;;;3.42;;
5929;SDS011;2990;48.746;9.236;2023-09-12T14:49:23;4.93;;;3.78;;
5929;SDS011;2990;48.746;9.236;2023-09-12T14:51:48;4.13;;;3.83;;
5929;SDS011;2990;48.746;9.236;2023-09-12T14:54:14;5.03;;;4.40;;
5929;SDS011;2990;48.746;9.236;2023-09-12T14:56:39;3.55;;;3.45;;
5929;SDS011;2990;48.746;9.236;2023-09-12T14:59:06;4.07;;;3.97;;
5929;SDS011;2990;48.746;9.236;2023-09-12T15:01:33;5.25;;;4.40;;
5929;SDS011;2990;48.746;9.236;2023-09-12T15:04:00;4.03;;;3.83;;
5929;SDS011;2990;48.746;9.236;2023-09-12T15:06:26;4.07;;;3.88;;
5929;SDS011;2990;48.746;9.236;2023-09-12T15:08:52;4.68;;;4.38;;
5929;SDS011;2990;48.746;9.236;2023-09-12T15:11:18;3.67;;;3.53;;
5929;SDS011;2990;48.746;9.236;2023-09-12T15:13:44;4.10;;;3.80;;
5929;SDS011;2990;48.746;9.236;2023-09-12T15:16:10;4.18;;;3.97;;
5929;SDS011;2990;48.746;9.236;2023-09-12T15:18:37;3.85;;;3.53;;
5929;SDS011;2990;48.746;9.236;2023-09-12T15:21:05;4.47;;;4.13;;
5929;SDS011;2990;48.746;9.236;2023-09-12T15:23:30;4.47;;;4.10;;
5929;SDS011;2990;48.746;9.236;2023-09-12T15:25:56;4.38;;;4.22;;